Latest Weather Observations for Walungurru (Kintore)

IDD60801

Issued at 7:51 am CST Monday 1 March 2021 (issued every 10 minutes, with the page automatically refreshed every 10 minutes)

About weather observations | Map of weather stations | Latest weather observations for NT | Other Formats
Station Details ID: 015664 Name: WALUNGURRU AIRPORT Lat: -23.27 Lon: 129.38 Height: 454.3 m
Data from the previous 72 hours. | See also: Recent months at Walungurru (Kintore)
Date/Time
CST
Temp
°C
App
Temp
°C
Dew
Point
°C
Rel
Hum
%
Delta-T
°C
Wind Press
QNH
hPa
Press
MSL
hPa
Rain since
9am
mm
Dir  Spd
km/h
Gust
km/h
Spd
kts
Gust
kts
01/07:30am 29.7 29.7 9.8 29 11.4 CALM 0 0 0 0 1011.0 1007.1 0.0
01/07:00am 28.0 27.9 9.3 31 10.6 CALM 0 6 0 3 1010.5 1006.6 0.0
01/06:30am 29.5 27.6 9.1 28 11.6 NW 9 15 5 8 1010.3 1006.3 0.0
01/06:00am 28.1 26.7 8.9 30 10.8 SW 6 7 3 4 1010.1 1006.1 0.0
01/05:30am 30.0 27.5 8.4 26 12.2 N 11 15 6 8 1009.8 1005.8 0.0
01/05:00am 31.0 27.3 8.1 24 12.9 NW 17 24 9 13 1009.6 1005.6 0.0
01/04:30am 31.1 26.9 7.5 23 13.2 NW 19 22 10 12 1009.6 1005.6 0.0
01/04:00am 31.8 28.2 6.8 21 13.8 NW 15 19 8 10 1009.6 1005.6 0.0
01/03:30am 32.0 28.5 7.0 21 13.9 N 15 20 8 11 1009.6 1005.6 0.0
01/03:00am 32.0 28.4 8.3 23 13.4 N 17 24 9 13 1009.7 1005.7 0.0
01/02:30am 32.2 28.5 7.8 22 13.7 NNE 17 20 9 11 1009.7 1005.7 0.0
01/02:00am 31.9 30.7 8.2 23 13.4 NNE 4 11 2 6 1010.1 1006.1 0.0
01/01:30am 32.7 29.4 8.2 22 13.9 NE 15 26 8 14 1010.2 1006.2 0.0
01/01:00am 31.8 31.5 8.7 24 13.2 CALM 0 0 0 0 1010.2 1006.2 0.0
01/12:30am 32.0 30.3 8.3 23 13.4 S 7 13 4 7 1010.1 1006.1 0.0
01/12:00am 32.5 29.2 8.0 22 13.9 N 15 22 8 12 1010.1 1006.1 0.0
 
Date/Time
CST
Temp
°C
App
Temp
°C
Dew
Point
°C
Rel
Hum
%
Delta-T
°C
Wind Press
QNH
hPa
Press
MSL
hPa
Rain since
9am
mm
Dir  Spd
km/h
Gust
km/h
Spd
kts
Gust
kts
28/11:30pm 32.6 29.7 8.1 22 13.9 NE 13 20 7 11 1010.1 1006.1 0.0
28/11:00pm 31.0 29.9 9.8 27 12.2 ENE 6 13 3 7 1010.0 1006.0 0.0
28/10:30pm 32.0 30.1 8.9 24 13.2 NW 9 11 5 6 1009.9 1005.9 0.0
28/10:00pm 31.9 31.5 8.2 23 13.4 CALM 0 0 0 0 1009.6 1005.6 0.0
28/09:30pm 32.7 30.4 7.5 21 14.2 SSE 9 13 5 7 1009.4 1005.4 0.0
28/09:00pm 33.3 30.4 6.6 19 14.8 SSE 11 15 6 8 1009.1 1005.2 0.0
28/08:30pm 33.5 29.5 6.7 19 14.9 SSE 17 26 9 14 1008.9 1005.0 0.0
28/08:00pm 33.3 28.9 7.3 20 14.6 SE 20 26 11 14 1008.5 1004.6 0.0
28/07:30pm 33.4 28.2 7.4 20 14.6 SE 24 33 13 18 1008.3 1004.3 0.0
28/07:00pm 33.7 29.1 8.3 21 14.5 SSE 22 37 12 20 1008.2 1004.2 0.0
28/06:42pm 33.6 28.6 10.9 25 13.5 ENE 28 48 15 26 1008.4 1004.5 0.0
28/06:30pm 34.4 29.2 8.9 21 14.8 NE 26 35 14 19 1008.5 1004.6 0.0
28/06:00pm 35.1 31.4 8.0 19 15.5 SSE 17 30 9 16 1007.6 1003.6 0.0
28/05:30pm 37.9 34.3 6.8 15 17.7 WNW 15 24 8 13 1007.5 1003.5 0.0
28/05:00pm 37.9 31.8 6.8 15 17.7 NW 28 35 15 19 1007.2 1003.2 0.0
28/04:50pm 37.8 33.4 6.7 15 17.7 NW 19 41 10 22 1007.1 1003.1 0.0
28/04:30pm 38.4 35.4 6.2 14 18.2 NW 11 20 6 11 1007.1 1003.1 0.0
28/04:00pm 36.8 33.2 4.9 14 17.5 NNE 13 24 7 13 1007.4 1003.4 0.0
28/03:30pm 37.1 33.2 5.2 14 17.7 NNW 15 22 8 12 1007.8 1003.8 0.0
28/03:00pm 38.5 35.6 6.3 14 18.3 WSW 11 24 6 13 1007.9 1003.9 0.0
28/02:30pm 37.1 32.6 6.2 15 17.4 WNW 19 28 10 15 1008.5 1004.6 0.0
28/02:00pm 38.0 33.3 5.9 14 18.0 NNE 20 30 11 16 1009.1 1005.2 0.0
28/01:30pm 37.3 32.7 6.3 15 17.5 N 20 37 11 20 1009.5 1005.5 0.0
28/01:00pm 37.6 32.4 5.6 14 17.8 N 22 33 12 18 1009.9 1005.9 0.0
28/12:30pm 37.4 31.6 6.4 15 17.5 N 26 33 14 18 1010.1 1006.1 0.0
28/12:00pm 36.6 30.5 6.7 16 16.9 NNW 28 41 15 22 1010.4 1006.5 0.0
28/11:30am 36.2 30.4 8.1 18 16.2 NNW 28 37 15 20 1010.8 1006.9 0.0
28/11:00am 34.7 30.7 10.5 23 14.3 NNW 22 30 12 16 1011.0 1007.1 0.0
28/10:30am 33.5 30.3 11.4 26 13.2 NNW 19 26 10 14 1011.2 1007.3 0.0
28/10:00am 32.2 29.4 11.4 28 12.4 NNW 17 26 9 14 1011.2 1007.3 0.0
28/09:30am 31.6 28.4 11.4 29 12.0 NNW 19 24 10 13 1011.1 1007.2 0.0
28/09:00am 30.4 27.2 9.8 28 11.9 N 17 24 9 13 1010.8 1006.9 0.0
28/08:30am 29.4 25.7 6.1 23 12.6 NNE 15 20 8 11 1010.7 1006.8 0.0
28/08:00am 28.6 24.1 4.2 21 12.7 NE 17 20 9 11 1010.3 1006.3 0.0
28/07:30am 28.0 24.7 4.3 22 12.3 NE 11 15 6 8 1009.9 1005.9 0.0
28/07:00am 26.8 23.1 4.6 24 11.5 NE 13 17 7 9 1009.5 1005.5 0.0
28/06:30am 25.8 22.5 4.3 25 11.0 NE 11 13 6 7 1009.1 1005.2 0.0
28/06:00am 26.8 23.8 4.0 23 11.7 NE 9 13 5 7 1008.7 1004.8 0.0
28/05:30am 27.8 24.1 4.2 22 12.2 ENE 13 15 7 8 1008.2 1004.2 0.0
28/05:00am 28.2 24.5 4.5 22 12.4 ENE 13 15 7 8 1008.1 1004.1 0.0
28/04:30am 27.4 23.7 4.5 23 11.9 ENE 13 17 7 9 1008.2 1004.2 0.0
28/04:00am 28.4 24.2 4.0 21 12.6 NE 15 17 8 9 1008.5 1004.6 0.0
28/03:30am 29.5 24.9 3.5 19 13.5 NE 17 20 9 11 1008.7 1004.8 0.0
28/03:00am 29.8 24.8 3.7 19 13.6 NNE 19 22 10 12 1008.7 1004.8 0.0
28/02:30am 29.6 24.6 3.6 19 13.5 N 19 20 10 11 1008.8 1004.9 0.0
28/02:00am 29.5 26.3 4.9 21 13.0 NE 11 15 6 8 1009.0 1005.1 0.0
28/01:30am 30.2 27.3 4.8 20 13.5 NE 9 13 5 7 1008.9 1005.0 0.0
28/01:00am 30.2 26.9 4.8 20 13.5 ENE 11 13 6 7 1009.1 1005.2 0.0
28/12:30am 30.0 27.2 5.3 21 13.2 ENE 9 11 5 6 1009.4 1005.4 0.0
28/12:00am 30.7 28.3 4.4 19 13.9 ENE 6 7 3 4 1009.4 1005.4 0.0
 
Date/Time
CST
Temp
°C
App
Temp
°C
Dew
Point
°C
Rel
Hum
%
Delta-T
°C
Wind Press
QNH
hPa
Press
MSL
hPa
Rain since
9am
mm
Dir  Spd
km/h
Gust
km/h
Spd
kts
Gust
kts
27/11:30pm 31.1 28.2 4.8 19 14.0 NE 9 11 5 6 1009.4 1005.4 0.0
27/11:00pm 31.8 28.0 3.8 17 14.7 NE 13 17 7 9 1009.4 1005.4 0.0
27/10:30pm 32.8 28.8 2.8 15 15.6 ENE 13 19 7 10 1009.0 1005.1 0.0
27/10:00pm 32.4 29.4 4.2 17 15.0 ENE 9 11 5 6 1008.6 1004.7 0.0
27/09:30pm 32.8 29.1 4.6 17 15.1 ENE 13 17 7 9 1008.2 1004.2 0.0
27/09:00pm 33.0 30.0 3.9 16 15.5 E 9 11 5 6 1007.9 1003.9 0.0
27/08:30pm 33.8 30.5 2.6 14 16.3 ENE 9 13 5 7 1007.6 1003.6 0.0
27/08:00pm 34.3 31.5 3.0 14 16.5 NNE 7 9 4 5 1007.2 1003.2 0.0
27/07:30pm 35.1 32.2 1.5 12 17.4 N 6 7 3 4 1006.7 1002.8 0.0
27/07:00pm 35.7 32.1 0.7 11 17.9 NNW 9 11 5 6 1006.4 1002.5 0.0
27/06:30pm 35.9 32.2 2.1 12 17.8 NW 11 15 6 8 1006.2 1002.2 0.0
27/06:00pm 36.9 33.8 1.6 11 18.5 W 7 15 4 8 1005.9 1001.9 0.0
27/05:30pm 36.3 32.4 1.2 11 18.2 NW 11 19 6 10 1005.9 1001.9 0.0
27/05:00pm 37.2 33.6 0.5 10 18.9 SSW 9 17 5 9 1005.8 1001.8 0.0
27/04:30pm 37.3 33.7 0.6 10 19.0 N 9 15 5 8 1005.8 1001.8 0.0
27/04:00pm 38.1 35.2 1.2 10 19.3 NNW 6 13 3 7 1006.0 1002.0 0.0
27/03:30pm 37.4 32.7 0.7 10 19.0 NNW 15 22 8 12 1006.3 1002.3 0.0
27/03:00pm 36.7 31.5 0.1 10 18.7 N 17 26 9 14 1006.6 1002.7 0.0
27/02:30pm 36.7 31.7 1.5 11 18.4 NNE 17 28 9 15 1006.9 1003.0 0.0
27/02:00pm 36.4 32.1 1.2 11 18.2 NNE 13 30 7 16 1007.5 1003.5 0.0
27/01:30pm 36.1 30.7 1.0 11 18.1 N 19 32 10 17 1007.9 1003.9 0.0
27/01:00pm 35.6 30.7 1.8 12 17.6 NNW 17 28 9 15 1008.2 1004.2 0.0
27/12:30pm 35.4 29.7 2.8 13 17.3 N 22 32 12 17 1008.8 1004.9 0.0
27/12:00pm 34.8 28.6 2.3 13 17.0 N 24 33 13 18 1009.4 1005.4 0.0
27/11:30am 33.6 28.2 2.4 14 16.2 N 20 30 11 16 1009.8 1005.8 0.0
27/11:00am 32.9 27.0 1.9 14 15.9 NNE 22 35 12 19 1010.0 1006.0 0.0
27/10:30am 31.7 26.1 1.0 14 15.4 NE 20 30 11 16 1010.1 1006.1 0.0
27/10:00am 31.1 24.6 0.5 14 15.2 NE 24 30 13 16 1010.1 1006.1 0.0
27/09:30am 29.3 23.1 0.0 15 14.3 ENE 22 30 12 16 1010.0 1006.0 0.0
27/09:00am 28.3 22.3 0.9 17 13.4 ENE 22 28 12 15 1009.9 1005.9 0.0
27/08:30am 26.6 20.6 1.1 19 12.4 ENE 22 26 12 14 1009.7 1005.7 0.0
27/08:00am 25.0 18.6 1.2 21 11.5 ENE 24 30 13 16 1009.4 1005.4 0.0
27/07:30am 24.3 18.8 1.9 23 10.9 ENE 20 28 11 15 1008.9 1005.0 0.0
27/07:00am 24.0 18.5 1.6 23 10.8 ENE 20 28 11 15 1008.6 1004.7 0.0
27/06:30am 24.8 19.7 1.0 21 11.4 ENE 17 20 9 11 1008.3 1004.3 0.0
27/06:00am 24.9 20.2 1.1 21 11.5 NE 15 19 8 10 1008.1 1004.1 0.0
27/05:30am 25.0 20.3 1.2 21 11.5 ENE 15 19 8 10 1007.8 1003.8 0.0
27/05:00am 24.8 20.1 1.0 21 11.4 ENE 15 20 8 11 1007.6 1003.6 0.0
27/04:30am 25.7 20.9 0.4 19 12.1 ENE 15 17 8 9 1007.3 1003.3 0.0
27/04:00am 26.2 21.0 0.0 18 12.4 ENE 17 20 9 11 1006.9 1003.0 0.0
27/03:30am 26.9 21.7 -0.2 17 12.9 ENE 17 20 9 11 1006.9 1003.0 0.0
27/03:00am 27.4 21.7 -0.6 16 13.3 ENE 19 24 10 13 1007.1 1003.1 0.0
27/02:30am 27.1 21.4 -0.9 16 13.2 E 19 20 10 11 1007.2 1003.2 0.0
27/02:00am 27.4 22.1 -0.6 16 13.3 E 17 20 9 11 1007.4 1003.4 0.0
27/01:30am 27.9 22.2 -1.1 15 13.7 E 19 22 10 12 1007.6 1003.6 0.0
27/01:00am 28.4 22.6 -1.6 14 14.1 E 19 22 10 12 1007.6 1003.6 0.0
27/12:30am 28.7 23.3 -1.4 14 14.2 E 17 20 9 11 1007.9 1003.9 0.0
27/12:00am 29.1 23.7 -1.1 14 14.4 E 17 20 9 11 1008.1 1004.1 0.0
 
Date/Time
CST
Temp
°C
App
Temp
°C
Dew
Point
°C
Rel
Hum
%
Delta-T
°C
Wind Press
QNH
hPa
Press
MSL
hPa
Rain since
9am
mm
Dir  Spd
km/h
Gust
km/h
Spd
kts
Gust
kts
26/11:30pm 29.1 23.7 -1.1 14 14.4 E 17 19 9 10 1008.1 1004.1 0.0
26/11:00pm 27.0 24.1 1.4 19 12.5 ESE 6 7 3 4 1008.2 1004.2 0.0
26/10:30pm 27.8 23.7 -0.3 16 13.5 SSE 11 13 6 7 1008.1 1004.1 0.0
26/10:00pm 28.4 23.7 -1.6 14 14.1 SSE 13 13 7 7 1008.0 1004.0 0.0
26/09:30pm 29.4 25.1 -1.9 13 14.8 SSE 11 13 6 7 1007.8 1003.8 0.0
26/09:00pm 29.5 24.8 -1.8 13 14.8 SE 13 17 7 9 1007.6 1003.6 0.0
26/08:30pm 30.2 26.2 -2.3 12 15.3 SSW 9 13 5 7 1007.1 1003.1 0.0
26/08:00pm 31.3 26.9 -2.6 11 16.0 SW 11 15 6 8 1006.7 1002.8 0.0
26/07:30pm 32.8 28.7 -2.8 10 16.9 SSE 9 13 5 7 1006.4 1002.5 0.0
26/07:00pm 34.3 30.0 -4.6 8 18.1 NE 9 13 5 7 1006.0 1002.0 0.0
26/06:30pm 34.8 30.2 -4.3 8 18.4 N 11 17 6 9 1005.8 1001.8 0.0
26/06:00pm 35.1 30.9 -4.1 8 18.6 ENE 9 13 5 7 1005.7 1001.7 0.0
26/05:30pm 35.8 31.6 -3.5 8 18.9 WNW 9 13 5 7 1005.7 1001.7 0.0
26/05:00pm 36.0 31.9 -3.4 8 18.9 NNW 9 13 5 7 1005.6 1001.6 0.0
26/04:30pm 35.4 31.2 -3.8 8 18.7 W 9 17 5 9 1005.8 1001.8 0.0
26/04:00pm 35.2 30.2 -4.0 8 18.5 NNW 13 22 7 12 1006.0 1002.0 0.0
26/03:30pm 35.8 30.9 -3.5 8 18.9 NW 13 20 7 11 1006.1 1002.1 0.0
26/03:00pm 35.4 31.6 -3.8 8 18.7 WNW 7 17 4 9 1006.4 1002.5 0.0
26/02:30pm 35.4 30.5 -3.8 8 18.7 NW 13 20 7 11 1006.8 1002.9 0.0
26/02:00pm 34.6 29.0 -2.9 9 18.0 WNW 17 28 9 15 1007.4 1003.4 0.0
26/01:30pm 34.4 29.2 -3.0 9 17.9 WNW 15 28 8 15 1007.7 1003.7 0.0
26/01:00pm 34.1 28.8 -3.2 9 17.7 N 15 26 8 14 1008.1 1004.1 0.0
26/12:30pm 33.7 28.4 -3.5 9 17.6 N 15 24 8 13 1008.6 1004.7 0.0
26/12:00pm 32.9 26.6 -4.1 9 17.2 N 20 32 11 17 1009.0 1005.1 0.0
26/11:30am 32.6 26.0 -2.9 10 16.8 N 22 30 12 16 1009.4 1005.4 0.0
26/11:00am 31.7 24.3 -3.6 10 16.4 NE 26 39 14 21 1009.6 1005.6 0.0
26/10:30am 31.3 23.5 -3.9 10 16.2 NE 28 37 15 20 1009.9 1005.9 0.0
26/10:00am 29.6 20.5 -3.9 11 15.2 NE 35 43 19 23 1010.1 1006.1 0.0
26/09:30am 28.7 20.0 -3.5 12 14.7 NE 33 43 18 23 1010.1 1006.1 0.0
26/09:00am 27.7 19.2 -3.2 13 14.0 NE 32 44 17 24 1010.2 1006.2 0.0
26/08:30am 25.8 18.1 -2.8 15 12.9 NE 28 35 15 19 1010.0 1006.0 0.0
26/08:00am 24.3 17.3 -0.8 19 11.6 ENE 26 33 14 18 1009.8 1005.8 0.0

Other formats

Comma delimited format used in spreadsheet applications
http://www.bom.gov.au/fwo/IDD60801/IDD60801.94321.axf

JavaScript Object Notation format (JSON) in row-major order
http://www.bom.gov.au/fwo/IDD60801/IDD60801.94321.json

Data quality

Most of these data are generated automatically and are frequently updated. Quality checks on data are not normally performed. It is possible for incorrect values to appear. Refer to information at About Latest Weather Observations and please check the disclaimer before using these data.